createdAt,value
2022-09-11T00:29:44.060Z,3.6
2022-09-11T00:59:50.497Z,3
2022-09-11T01:29:49.946Z,3.4
2022-09-11T01:59:56.985Z,2.9
2022-09-11T02:29:53.085Z,2.2
2022-09-11T02:59:56.080Z,2
2022-09-11T03:29:56.062Z,1.6
2022-09-11T03:59:57.635Z,1.8
2022-09-11T04:29:58.230Z,1.8
2022-09-11T04:59:59.934Z,1.8
2022-09-11T05:30:02.329Z,1.6
2022-09-11T06:00:03.532Z,1.4
2022-09-11T06:30:04.395Z,1.2
2022-09-11T07:00:07.026Z,1
2022-09-11T07:30:08.718Z,1.2
2022-09-11T08:00:11.978Z,1.3
2022-09-11T08:30:15.017Z,1.4
2022-09-11T09:00:20.914Z,1.2
2022-09-11T09:30:23.418Z,1.4
2022-09-11T10:00:22.798Z,1.7
2022-09-11T10:30:40.614Z,1.6
2022-09-11T11:00:31.882Z,1.8
2022-09-11T11:30:35.175Z,2
2022-09-11T12:00:42.893Z,1.5
2022-09-11T12:30:59.691Z,1.2
2022-09-11T13:00:48.709Z,1.4
2022-09-11T13:31:00.205Z,1.3
2022-09-11T14:00:56.480Z,1.2
2022-09-11T14:31:13.973Z,1.3
2022-09-11T15:01:06.701Z,1.3
2022-09-11T15:31:12.270Z,1.1
2022-09-11T16:01:19.500Z,1.1
2022-09-11T16:31:20.941Z,1.3
2022-09-11T17:01:26.186Z,1.3
2022-09-11T17:31:28.890Z,1.5
2022-09-11T18:01:33.603Z,1.6
2022-09-11T18:31:40.756Z,1.6
2022-09-11T19:01:39.716Z,2.1
2022-09-11T19:31:42.059Z,2.5
2022-09-11T20:01:45.177Z,2.6
2022-09-11T20:31:50.762Z,2.6
2022-09-11T21:01:50.193Z,2.9
2022-09-11T21:31:52.804Z,3.2
2022-09-11T22:01:54.327Z,3.2
2022-09-11T22:31:56.706Z,2.9
2022-09-11T23:01:59.955Z,2.6
2022-09-11T23:32:03.179Z,3.2
